Fultonville, New York
Current Conditions -  °F | °C
As of 1:35 PM on Thursday 30 Oct 2014 (Local Time) from KNY0 Reporting Station
Overcast Overcast  
Wind Chill: 42°   Ceiling: 4200
Heat Index: 47°   Visibility: 10mi
Dew Point: 35°   Wind: 10mph
Humidity: 62%   Direction: 280°W
Pressure: 29.97"   Gusts: NA
Location:  42.95°N, 74.37°W
Report Text: KNY0 301735Z AUTO 28009KT 10SM SCT035 BKN042 OVC048 08/02 A2997 RMK AO2 T00830015
Loading
Personal Weather Stations






























Interactive Weather Map
Tropical Storm Tracking
New forecast layout! Learn more

10-Day Weather Forecast

Advertisements
Track Severe Weather on mobile